Terminal Aerodrome Forecast
Issued by NWS

Home | Current Version | Previous Version | Text Only | Print | Product List | Glossary Off
Versions: 1 2 3 4 5 6 7 8 9 10 11 12 13 14 15

000
FTUS43 KGRB 151100
TAFAUW
TAF
KAUW 151123Z 1512/1612 31005KT P6SM VCSH SCT040 OVC070
      TEMPO 1513/1517 5SM -SHRA BR BKN040
     FM151700 29006KT P6SM VCSH SCT045 BKN070
     FM152000 30009KT P6SM SCT045 BKN080
     FM152300 30006KT P6SM SKC
     FM160200 VRB03KT P6SM SKC=

USA.gov is the U.S. government's official web portal to all federal, state and local government web resources and services.